createdAt,value
2022-09-12T00:02:04.469Z,6.55
2022-09-12T00:04:32.029Z,7.00
2022-09-12T00:06:59.268Z,7.30
2022-09-12T00:09:26.521Z,7.20
2022-09-12T00:11:53.991Z,7.15
2022-09-12T00:14:21.204Z,7.45
2022-09-12T00:16:48.535Z,6.35
2022-09-12T00:22:29.428Z,5.85
2022-09-12T00:24:56.925Z,5.97
2022-09-12T00:27:24.166Z,7.07
2022-09-12T00:29:51.509Z,5.50
2022-09-12T00:35:52.320Z,5.32
2022-09-12T00:41:52.366Z,5.37
2022-09-12T00:47:51.793Z,4.93
2022-09-12T00:50:19.284Z,5.28
2022-09-12T00:52:48.256Z,4.88
2022-09-12T00:55:26.165Z,4.50
2022-09-12T00:57:59.320Z,4.78
2022-09-12T01:00:27.226Z,4.40
2022-09-12T01:03:01.036Z,4.43
2022-09-12T01:09:00.628Z,4.47
2022-09-12T01:11:28.359Z,3.97
2022-09-12T01:13:55.810Z,4.03
2022-09-12T01:16:23.397Z,3.75
2022-09-12T01:18:50.880Z,3.95
2022-09-12T01:21:29.640Z,4.45
2022-09-12T01:24:20.312Z,5.53
2022-09-12T01:26:59.810Z,6.07
2022-09-12T01:29:27.313Z,4.95
2022-09-12T01:32:12.690Z,4.63
2022-09-12T01:38:02.996Z,4.50
2022-09-12T01:43:42.886Z,4.32
2022-09-12T01:46:12.797Z,4.07
2022-09-12T01:52:14.994Z,3.95
2022-09-12T01:54:46.002Z,4.15
2022-09-12T01:57:25.094Z,3.80
2022-09-12T02:03:16.916Z,4.53
2022-09-12T02:05:50.864Z,4.22
2022-09-12T02:08:20.830Z,3.95
2022-09-12T02:10:54.967Z,4.15
2022-09-12T02:13:25.566Z,3.75
2022-09-12T02:15:56.962Z,3.78
2022-09-12T02:18:26.531Z,3.80
2022-09-12T02:27:42.970Z,3.83
2022-09-12T02:30:10.752Z,4.20
2022-09-12T02:32:58.014Z,4.10
2022-09-12T02:35:28.512Z,4.10
2022-09-12T02:37:55.793Z,4.25
2022-09-12T02:40:23.059Z,4.47
2022-09-12T02:42:50.578Z,3.75
2022-09-12T02:48:33.907Z,4.07
2022-09-12T02:54:05.987Z,4.25
2022-09-12T02:56:33.451Z,3.50
2022-09-12T02:59:05.478Z,3.90
2022-09-12T03:01:35.878Z,4.22
2022-09-12T03:04:16.980Z,4.20
2022-09-12T03:07:19.867Z,4.22
2022-09-12T03:12:20.082Z,4.00
2022-09-12T03:17:56.854Z,3.70
2022-09-12T03:24:15.071Z,4.00
2022-09-12T03:26:44.870Z,3.88
2022-09-12T03:29:13.154Z,3.67
2022-09-12T03:31:50.627Z,4.00
2022-09-12T03:34:18.807Z,3.90
2022-09-12T03:40:09.438Z,3.80
2022-09-12T03:42:37.270Z,4.38
2022-09-12T03:45:05.437Z,4.68
2022-09-12T03:47:32.771Z,4.40
2022-09-12T03:50:01.580Z,3.80
2022-09-12T03:52:28.874Z,4.43
2022-09-12T03:54:56.303Z,5.07
2022-09-12T03:57:24.023Z,4.65
2022-09-12T03:59:51.266Z,4.45
2022-09-12T04:02:18.708Z,4.38
2022-09-12T04:08:18.742Z,4.50
2022-09-12T04:14:18.551Z,3.90
2022-09-12T04:16:46.022Z,4.22
2022-09-12T04:19:13.280Z,4.13
2022-09-12T04:21:40.509Z,3.92
2022-09-12T04:24:08.076Z,3.53
2022-09-12T04:26:35.754Z,4.07
2022-09-12T04:29:05.751Z,3.95
2022-09-12T04:31:33.231Z,3.80
2022-09-12T04:37:04.104Z,4.70
2022-09-12T04:39:31.363Z,4.03
2022-09-12T04:41:59.485Z,4.30
2022-09-12T04:44:26.980Z,4.00
2022-09-12T04:46:54.279Z,3.97
2022-09-12T04:49:21.582Z,3.97
2022-09-12T04:55:21.856Z,4.03
2022-09-12T04:57:49.359Z,3.90
2022-09-12T05:00:16.740Z,3.70
2022-09-12T05:02:44.243Z,4.00
2022-09-12T05:05:11.732Z,4.03
2022-09-12T05:07:38.963Z,4.05
2022-09-12T05:10:06.453Z,3.72
2022-09-12T05:12:33.925Z,3.85
2022-09-12T05:15:01.190Z,4.07
2022-09-12T05:17:29.432Z,4.53
2022-09-12T05:23:00.496Z,3.25
2022-09-12T05:28:33.345Z,3.88
2022-09-12T05:31:01.932Z,3.97
2022-09-12T05:33:29.708Z,3.97
2022-09-12T05:35:57.083Z,3.70
2022-09-12T05:38:24.596Z,3.58
2022-09-12T05:40:52.131Z,3.65
2022-09-12T05:43:19.408Z,4.18
2022-09-12T05:52:22.391Z,3.75
2022-09-12T05:54:49.909Z,3.58
2022-09-12T05:57:17.153Z,3.75
2022-09-12T05:59:44.418Z,3.50
2022-09-12T06:02:11.886Z,3.58
2022-09-12T06:08:35.326Z,2.80
2022-09-12T06:14:27.986Z,3.22
2022-09-12T06:16:55.507Z,3.17
2022-09-12T06:22:36.782Z,2.92
2022-09-12T06:25:04.209Z,3.28
2022-09-12T06:27:31.883Z,2.95
2022-09-12T06:33:03.342Z,2.80
2022-09-12T06:38:35.017Z,2.53
2022-09-12T06:41:09.663Z,2.72
2022-09-12T06:43:37.030Z,2.05
2022-09-12T06:46:05.224Z,2.28
2022-09-12T06:48:32.532Z,1.88
2022-09-12T06:51:01.025Z,2.15
2022-09-12T06:53:29.192Z,3.00
2022-09-12T06:56:16.873Z,2.00
2022-09-12T06:58:46.602Z,2.00
2022-09-12T07:01:21.632Z,2.00
2022-09-12T07:03:50.607Z,2.17
2022-09-12T07:08:48.368Z,1.63
2022-09-12T07:11:19.787Z,1.70
2022-09-12T07:13:48.895Z,1.77
2022-09-12T07:16:19.712Z,1.67
2022-09-12T07:18:54.467Z,1.48
2022-09-12T07:24:43.965Z,1.80
2022-09-12T07:27:11.802Z,1.73
2022-09-12T07:29:39.064Z,1.80
2022-09-12T07:32:06.623Z,1.75
2022-09-12T07:34:34.362Z,2.05
2022-09-12T07:37:01.990Z,2.00
2022-09-12T07:39:29.222Z,1.95
2022-09-12T07:41:59.356Z,1.80
2022-09-12T07:44:27.704Z,2.00
2022-09-12T07:46:57.546Z,1.77
2022-09-12T07:52:57.268Z,1.48
2022-09-12T07:55:24.787Z,1.65
2022-09-12T08:01:32.064Z,1.70
2022-09-12T08:04:00.024Z,1.80
2022-09-12T08:06:28.608Z,1.90
2022-09-12T08:08:56.775Z,1.85
2022-09-12T08:14:46.293Z,1.55
2022-09-12T08:17:13.869Z,1.90
2022-09-12T08:19:41.160Z,1.50
2022-09-12T08:22:08.418Z,1.80
2022-09-12T08:24:35.802Z,1.65
2022-09-12T08:27:03.123Z,2.00
2022-09-12T08:29:30.393Z,1.73
2022-09-12T08:31:57.941Z,1.90
2022-09-12T08:34:25.304Z,1.73
2022-09-12T08:40:25.126Z,1.70
2022-09-12T08:43:12.841Z,1.73
2022-09-12T08:45:47.725Z,1.60
2022-09-12T08:48:15.353Z,1.90
2022-09-12T08:50:45.569Z,1.90
2022-09-12T08:53:19.045Z,1.45
2022-09-12T08:55:52.932Z,2.22
2022-09-12T08:58:21.613Z,1.92
2022-09-12T09:04:04.141Z,1.60
2022-09-12T09:06:43.740Z,1.70
2022-09-12T09:09:11.025Z,1.80
2022-09-12T09:11:59.363Z,1.80
2022-09-12T09:14:45.647Z,1.73
2022-09-12T09:17:17.614Z,1.90
2022-09-12T09:22:18.812Z,1.80
2022-09-12T09:24:48.588Z,1.83
2022-09-12T09:27:40.005Z,1.88
2022-09-12T09:33:43.577Z,1.75
2022-09-12T09:36:31.275Z,2.30
2022-09-12T09:39:06.072Z,2.50
2022-09-12T09:41:52.518Z,2.20
2022-09-12T09:44:20.382Z,2.40
2022-09-12T09:46:50.255Z,2.08
2022-09-12T09:49:18.145Z,2.15
2022-09-12T09:55:22.699Z,1.85
2022-09-12T09:57:50.335Z,2.13
2022-09-12T10:00:24.980Z,2.40
2022-09-12T10:03:04.670Z,1.85
2022-09-12T10:05:33.631Z,1.90
2022-09-12T10:08:02.530Z,1.77
2022-09-12T10:10:29.793Z,1.50
2022-09-12T10:13:07.804Z,2.13
2022-09-12T10:15:35.835Z,1.50
2022-09-12T10:18:03.164Z,1.67
2022-09-12T10:20:41.321Z,1.88
2022-09-12T10:23:20.774Z,2.15
2022-09-12T10:25:52.679Z,2.00
2022-09-12T10:28:22.894Z,1.77
2022-09-12T10:30:54.437Z,1.80
2022-09-12T10:35:49.623Z,2.13
2022-09-12T10:38:21.434Z,2.03
2022-09-12T10:43:26.437Z,1.80
2022-09-12T10:45:57.987Z,1.70
2022-09-12T10:48:27.908Z,1.90
2022-09-12T10:50:56.479Z,1.90
2022-09-12T10:53:34.476Z,1.92
2022-09-12T10:56:11.171Z,1.80
2022-09-12T10:58:57.066Z,1.83
2022-09-12T11:01:31.516Z,1.83
2022-09-12T11:04:07.900Z,1.60
2022-09-12T11:06:57.819Z,2.00
2022-09-12T11:09:33.323Z,1.65
2022-09-12T11:12:00.760Z,1.70
2022-09-12T11:14:49.395Z,1.50
2022-09-12T11:17:19.966Z,1.58
2022-09-12T11:19:47.993Z,1.33
2022-09-12T11:22:17.192Z,1.80
2022-09-12T11:25:03.163Z,1.55
2022-09-12T11:27:36.145Z,1.50
2022-09-12T11:30:06.507Z,1.33
2022-09-12T11:32:42.942Z,1.67
2022-09-12T11:35:17.417Z,1.65
2022-09-12T11:38:03.606Z,1.60
2022-09-12T11:40:49.888Z,1.60
2022-09-12T11:43:23.443Z,1.50
2022-09-12T11:45:51.847Z,1.60
2022-09-12T11:48:35.589Z,1.77
2022-09-12T11:51:05.118Z,1.50
2022-09-12T11:53:36.602Z,1.35
2022-09-12T11:58:31.266Z,1.70
2022-09-12T12:01:12.827Z,1.67
2022-09-12T12:03:42.551Z,1.55
2022-09-12T12:06:19.222Z,1.55
2022-09-12T12:08:47.837Z,1.45
2022-09-12T12:11:16.500Z,1.48
2022-09-12T12:13:49.657Z,1.25
2022-09-12T12:16:24.806Z,1.70
2022-09-12T12:18:56.893Z,1.52
2022-09-12T12:21:44.028Z,1.58
2022-09-12T12:24:17.014Z,1.60
2022-09-12T12:27:04.797Z,1.70
2022-09-12T12:29:32.103Z,1.30
2022-09-12T12:31:59.647Z,1.60
2022-09-12T12:34:31.557Z,1.60
2022-09-12T12:37:19.006Z,1.50
2022-09-12T12:39:47.228Z,1.50
2022-09-12T12:42:32.646Z,1.73
2022-09-12T12:45:02.944Z,1.70
2022-09-12T12:47:34.053Z,1.55
2022-09-12T12:50:04.293Z,1.60
2022-09-12T12:52:33.406Z,1.85
2022-09-12T12:55:02.047Z,1.88
2022-09-12T12:57:40.693Z,1.58
2022-09-12T13:00:20.226Z,1.65
2022-09-12T13:02:56.474Z,1.50
2022-09-12T13:05:25.816Z,1.50
2022-09-12T13:07:56.418Z,1.50
2022-09-12T13:10:31.121Z,1.30
2022-09-12T13:13:00.893Z,1.50
2022-09-12T13:15:47.093Z,1.50
2022-09-12T13:18:18.634Z,1.25
2022-09-12T13:20:58.079Z,1.58
2022-09-12T13:23:30.075Z,1.42
2022-09-12T13:28:25.693Z,1.50
2022-09-12T13:31:12.190Z,1.50
2022-09-12T13:33:41.534Z,1.30
2022-09-12T13:36:26.874Z,1.65
2022-09-12T13:38:58.044Z,1.80
2022-09-12T13:41:38.522Z,1.60
2022-09-12T13:44:09.646Z,1.65
2022-09-12T13:46:37.682Z,1.70
2022-09-12T13:49:30.287Z,1.55
2022-09-12T13:52:08.161Z,1.52
2022-09-12T13:54:37.915Z,1.60
2022-09-12T13:57:05.922Z,1.73
2022-09-12T13:59:39.793Z,1.40
2022-09-12T14:02:20.271Z,1.50
2022-09-12T14:07:20.358Z,1.23
2022-09-12T14:09:58.483Z,1.42
2022-09-12T14:12:34.139Z,1.60
2022-09-12T14:15:01.649Z,1.73
2022-09-12T14:17:33.024Z,1.30
2022-09-12T14:20:13.948Z,1.50
2022-09-12T14:22:41.481Z,1.27
2022-09-12T14:25:19.299Z,1.63
2022-09-12T14:27:47.706Z,1.70
2022-09-12T14:30:24.121Z,1.55
2022-09-12T14:33:09.738Z,1.60
2022-09-12T14:36:03.131Z,1.42
2022-09-12T14:38:37.955Z,1.60
2022-09-12T14:41:09.253Z,1.50
2022-09-12T14:43:38.160Z,1.73
2022-09-12T14:46:15.709Z,1.85
2022-09-12T14:48:46.115Z,1.55
2022-09-12T14:51:20.893Z,1.50
2022-09-12T14:53:48.967Z,1.67
2022-09-12T14:56:16.322Z,1.50
2022-09-12T14:58:43.830Z,1.30
2022-09-12T15:01:11.381Z,1.38
2022-09-12T15:03:43.059Z,1.52
2022-09-12T15:06:39.635Z,1.60
2022-09-12T15:09:08.417Z,1.77
2022-09-12T15:11:35.890Z,1.80
2022-09-12T15:14:12.801Z,1.63
2022-09-12T15:16:40.350Z,1.90
2022-09-12T15:19:08.712Z,1.60
2022-09-12T15:21:36.029Z,1.70
2022-09-12T15:24:03.641Z,1.83
2022-09-12T15:26:31.019Z,1.63
2022-09-12T15:28:58.476Z,1.58
2022-09-12T15:31:26.079Z,1.60
2022-09-12T15:33:53.865Z,1.80
2022-09-12T15:36:21.975Z,1.50
2022-09-12T15:38:49.826Z,1.50
2022-09-12T15:41:36.565Z,1.58
2022-09-12T15:44:05.135Z,1.80
2022-09-12T15:46:32.852Z,1.77
2022-09-12T15:49:00.975Z,1.90
2022-09-12T15:51:28.719Z,2.78
2022-09-12T15:53:55.947Z,1.88
2022-09-12T15:56:23.366Z,1.83
2022-09-12T15:59:00.005Z,1.85
2022-09-12T16:01:28.596Z,1.77
2022-09-12T16:03:56.272Z,2.10
2022-09-12T16:06:26.789Z,2.40
2022-09-12T16:08:54.030Z,1.90
2022-09-12T16:11:22.815Z,2.25
2022-09-12T16:13:51.961Z,2.45
2022-09-12T16:16:19.429Z,2.05
2022-09-12T16:18:47.498Z,2.22
2022-09-12T16:21:15.717Z,2.05
2022-09-12T16:23:44.227Z,2.00
2022-09-12T16:26:11.686Z,2.33
2022-09-12T16:28:39.153Z,2.35
2022-09-12T16:31:13.497Z,2.10
2022-09-12T16:33:41.300Z,2.22
2022-09-12T16:36:12.213Z,2.20
2022-09-12T16:38:43.091Z,2.33
2022-09-12T16:41:10.879Z,2.40
2022-09-12T16:43:38.517Z,2.53
2022-09-12T16:46:07.443Z,2.50
2022-09-12T16:48:34.866Z,2.22
2022-09-12T16:51:04.261Z,2.38
2022-09-12T16:53:32.128Z,2.50
2022-09-12T16:56:02.832Z,2.40
2022-09-12T16:58:32.479Z,2.65
2022-09-12T17:01:06.679Z,2.53
2022-09-12T17:03:34.473Z,2.58
2022-09-12T17:06:03.063Z,2.30
2022-09-12T17:08:30.525Z,2.83
2022-09-12T17:11:01.183Z,2.67
2022-09-12T17:13:41.345Z,3.08
2022-09-12T17:16:16.700Z,2.63
2022-09-12T17:18:43.977Z,2.45
2022-09-12T17:21:14.505Z,2.88
2022-09-12T17:23:42.233Z,2.60
2022-09-12T17:26:12.065Z,2.70
2022-09-12T17:28:39.789Z,2.75
2022-09-12T17:31:08.904Z,2.75
2022-09-12T17:33:36.719Z,3.00
2022-09-12T17:36:05.406Z,2.67
2022-09-12T17:38:33.699Z,3.17
2022-09-12T17:41:20.251Z,2.30
2022-09-12T17:43:49.425Z,2.97
2022-09-12T17:46:17.345Z,3.17
2022-09-12T17:48:47.212Z,4.43
2022-09-12T17:51:14.841Z,2.97
2022-09-12T17:53:45.288Z,2.60
2022-09-12T17:56:12.689Z,3.03
2022-09-12T17:58:40.242Z,3.42
2022-09-12T18:01:10.294Z,3.10
2022-09-12T18:03:37.654Z,3.20
2022-09-12T18:06:05.242Z,3.28
2022-09-12T18:08:32.483Z,3.35
2022-09-12T18:11:05.976Z,3.22
2022-09-12T18:13:33.745Z,3.35
2022-09-12T18:16:08.324Z,2.95
2022-09-12T18:18:36.812Z,3.03
2022-09-12T18:21:06.611Z,2.58
2022-09-12T18:23:34.197Z,3.20
2022-09-12T18:26:03.225Z,4.18
2022-09-12T18:28:41.230Z,3.50
2022-09-12T18:31:15.961Z,3.70
2022-09-12T18:33:43.312Z,3.83
2022-09-12T18:36:11.735Z,3.20
2022-09-12T18:38:39.328Z,4.53
2022-09-12T18:41:07.635Z,4.65
2022-09-12T18:43:35.130Z,4.45
2022-09-12T18:46:03.728Z,5.43
2022-09-12T18:48:31.579Z,5.60
2022-09-12T18:51:06.274Z,5.25
2022-09-12T18:53:34.304Z,4.70
2022-09-12T18:56:02.811Z,5.90
2022-09-12T18:58:30.152Z,5.13
2022-09-12T19:00:57.665Z,5.20
2022-09-12T19:03:25.254Z,4.72
2022-09-12T19:05:52.520Z,4.70
2022-09-12T19:08:19.765Z,4.15
2022-09-12T19:10:54.258Z,4.70
2022-09-12T19:13:21.873Z,4.10
2022-09-12T19:15:49.446Z,4.90
2022-09-12T19:18:16.752Z,3.75
2022-09-12T19:20:44.118Z,4.88
2022-09-12T19:23:11.575Z,4.57
2022-09-12T19:25:38.866Z,4.28
2022-09-12T19:28:06.145Z,4.35
2022-09-12T19:30:46.379Z,4.43
2022-09-12T19:33:13.811Z,5.10
2022-09-12T19:35:41.370Z,5.80
2022-09-12T19:38:08.726Z,5.68
2022-09-12T19:40:35.955Z,5.10
2022-09-12T19:43:03.598Z,5.05
2022-09-12T19:45:30.888Z,6.18
2022-09-12T19:47:58.190Z,6.10
2022-09-12T19:50:25.711Z,6.70
2022-09-12T19:52:53.113Z,5.75
2022-09-12T19:55:20.960Z,5.20
2022-09-12T19:57:49.893Z,5.15
2022-09-12T20:00:17.242Z,5.57
2022-09-12T20:02:49.423Z,5.88
2022-09-12T20:05:20.055Z,6.65
2022-09-12T20:07:47.872Z,6.20
2022-09-12T20:10:17.420Z,7.22
2022-09-12T20:12:45.139Z,6.65
2022-09-12T20:15:12.884Z,6.70
2022-09-12T20:17:40.201Z,6.10
2022-09-12T20:20:08.080Z,6.22
2022-09-12T20:22:39.402Z,5.25
2022-09-12T20:25:07.760Z,5.00
2022-09-12T20:27:35.475Z,4.43
2022-09-12T20:30:02.992Z,5.30
2022-09-12T20:32:30.353Z,6.07
2022-09-12T20:34:57.937Z,5.82
2022-09-12T20:37:25.191Z,7.20
2022-09-12T20:39:54.164Z,7.30
2022-09-12T20:42:21.719Z,7.38
2022-09-12T20:44:49.201Z,8.13
2022-09-12T20:47:16.464Z,8.18
2022-09-12T20:49:43.973Z,7.88
2022-09-12T20:52:11.290Z,8.63
2022-09-12T20:54:38.526Z,7.80
2022-09-12T20:57:06.176Z,8.48
2022-09-12T20:59:33.453Z,8.20
2022-09-12T21:02:01.067Z,8.82
2022-09-12T21:04:28.593Z,7.78
2022-09-12T21:06:55.917Z,8.10
2022-09-12T21:09:29.210Z,7.60
2022-09-12T21:11:57.022Z,8.35
2022-09-12T21:14:24.462Z,7.57
2022-09-12T21:16:51.786Z,6.80
2022-09-12T21:19:19.456Z,7.35
2022-09-12T21:21:46.708Z,8.20
2022-09-12T21:24:13.983Z,8.43
2022-09-12T21:26:41.463Z,8.57
2022-09-12T21:29:08.775Z,8.52
2022-09-12T21:31:36.069Z,8.45
2022-09-12T21:34:03.567Z,7.85
2022-09-12T21:36:31.201Z,8.45
2022-09-12T21:38:58.871Z,7.93
2022-09-12T21:41:26.369Z,9.35
2022-09-12T21:43:53.626Z,8.20
2022-09-12T21:46:20.913Z,8.90
2022-09-12T21:48:48.416Z,9.70
2022-09-12T21:51:15.871Z,9.23
2022-09-12T21:53:43.639Z,9.32
2022-09-12T21:56:11.102Z,10.07
2022-09-12T21:58:38.384Z,8.68
2022-09-12T22:01:06.811Z,9.88
2022-09-12T22:03:34.296Z,10.32
2022-09-12T22:06:03.027Z,10.00
2022-09-12T22:08:31.133Z,10.05
2022-09-12T22:10:59.516Z,10.70
2022-09-12T22:13:26.726Z,10.43
2022-09-12T22:15:54.079Z,10.73
2022-09-12T22:18:21.569Z,10.80
2022-09-12T22:20:48.907Z,11.07
2022-09-12T22:23:16.260Z,11.52
2022-09-12T22:25:43.714Z,11.40
2022-09-12T22:28:11.039Z,11.32
2022-09-12T22:30:38.300Z,10.18
2022-09-12T22:33:05.822Z,10.35
2022-09-12T22:35:33.110Z,11.18
2022-09-12T22:38:00.561Z,10.40
2022-09-12T22:40:27.774Z,10.07
2022-09-12T22:42:55.198Z,11.05
2022-09-12T22:45:22.532Z,11.60
2022-09-12T22:47:49.965Z,10.02
2022-09-12T22:50:17.340Z,11.48
2022-09-12T22:52:44.862Z,10.57
2022-09-12T22:55:12.156Z,10.70
2022-09-12T22:57:39.718Z,10.75
2022-09-12T23:00:07.330Z,10.80
2022-09-12T23:02:34.754Z,10.23
2022-09-12T23:05:02.077Z,10.38
2022-09-12T23:07:29.647Z,10.07
2022-09-12T23:09:57.039Z,10.57
2022-09-12T23:12:24.470Z,10.65
2022-09-12T23:14:53.950Z,11.10
2022-09-12T23:17:21.473Z,10.93
2022-09-12T23:19:48.765Z,11.48
2022-09-12T23:22:16.031Z,10.88
2022-09-12T23:24:43.476Z,10.13
2022-09-12T23:27:10.682Z,10.20
2022-09-12T23:29:37.969Z,9.85
2022-09-12T23:32:05.626Z,9.40
2022-09-12T23:34:32.865Z,8.73
2022-09-12T23:37:00.186Z,10.35
2022-09-12T23:39:48.635Z,9.27
2022-09-12T23:42:16.159Z,9.20
2022-09-12T23:44:43.691Z,9.82
2022-09-12T23:47:11.100Z,9.30
2022-09-12T23:49:38.349Z,9.57
2022-09-12T23:52:05.797Z,9.52
2022-09-12T23:54:33.028Z,9.85
2022-09-12T23:57:00.289Z,9.50
2022-09-12T23:59:27.711Z,10.40
